ADT,Max TemperatureF,Mean TemperatureF,Min TemperatureF,Max Dew PointF,MeanDew PointF,Min DewpointF,Max Humidity, Mean Humidity, Min Humidity, Max Sea Level PressureIn, Mean Sea Level PressureIn, Min Sea Level PressureIn, Max VisibilityMiles, Mean VisibilityMiles, Min VisibilityMiles, Max Wind SpeedMPH, Mean Wind SpeedMPH, Max Gust SpeedMPH,PrecipitationIn, CloudCover, Events, WindDirDegrees
2011-10-1,66,63,60,64,62,59,100,94,88,30.01,29.97,29.94,6,1,0,23,15,29,0.00,8,Rain,176
2011-10-2,68,64,60,64,62,61,100,93,83,30.09,29.92,29.32,6,1,0,46,15,52,0.00,7,Rain,115
2011-10-3,64,62,60,63,58,50,100,87,63,30.12,29.95,29.53,4,1,0,31,17,40,0.00,7,Rain,257
2011-10-4,62,60,59,61,58,57,100,94,94,30.12,29.97,29.68,8,1,0,23,7,31,0.00,8,Rain,72
2011-10-5,62,55,48,61,53,39,94,84,62,29.68,29.43,29.30,9,4,1,46,27,59,0.00,7,Rain,213
2011-10-6,48,45,42,39,37,34,81,70,58,29.99,29.75,29.55,9,8,2,40,30,46,0.00,7,Rain,304
2011-10-7,50,46,42,37,35,30,81,68,53,30.33,30.15,29.99,9,9,7,28,22,36,0.00,6,Rain,329
2011-10-8,59,52,44,54,44,28,94,73,50,30.33,30.21,30.09,9,8,3,25,14,31,0.00,3,Rain,265
2011-10-9,64,58,53,55,53,52,94,88,73,30.09,30.03,29.95,9,5,1,13,7,17,0.00,0,,270
2011-10-10,64,60,55,55,51,45,94,76,63,29.94,29.88,29.80,9,8,5,22,12,30,0.00,1,,303
2011-10-11,55,53,51,46,42,41,82,67,58,30.22,30.09,29.95,9,9,9,24,18,28,0.00,2,,341
2011-10-12,57,54,50,48,44,41,77,73,67,30.36,30.32,30.24,9,9,9,15,10,20,0.00,6,,67
2011-10-13,60,55,50,57,52,43,94,87,76,30.34,30.21,30.13,9,7,4,20,12,,0.00,4,,129
2011-10-14,60,58,57,59,58,55,100,95,88,30.14,29.99,29.90,5,2,0,26,16,30,0.00,8,Rain,149
2011-10-15,62,60,57,61,59,55,94,93,82,29.89,29.83,29.77,4,2,1,37,20,43,0.00,7,Rain,178
2011-10-16,60,58,55,57,55,52,94,89,82,29.89,29.83,29.76,6,4,2,18,12,,0.00,2,Rain,200
2011-10-17,60,58,55,59,55,50,94,91,77,29.88,29.73,29.64,8,4,0,33,20,41,0.00,6,Rain,203
2011-10-18,60,56,53,54,51,50,88,82,72,30.04,29.93,29.77,9,7,5,18,15,21,0.00,1,Rain,221
2011-10-19,59,57,55,57,55,48,100,92,72,30.22,30.09,30.00,9,4,0,17,10,23,0.00,7,Rain,193
2011-10-20,64,60,57,63,60,54,100,94,88,30.14,29.94,29.88,3,1,0,31,21,36,0.00,8,Rain,183
2011-10-21,62,58,55,61,58,54,100,94,88,29.96,29.91,29.86,5,2,0,24,16,30,0.00,8,Rain,214
2011-10-22,59,57,55,55,54,52,100,91,82,30.04,30.00,29.95,9,4,1,14,10,17,0.00,3,,228
2011-10-23,60,56,51,54,51,48,94,84,67,30.10,30.04,30.00,9,8,3,14,8,17,0.00,3,,259
2011-10-24,57,50,44,52,48,43,100,88,77,30.16,30.13,30.10,9,8,1,8,4,,0.00,2,,7
2011-10-25,53,50,48,52,50,46,100,91,82,30.06,29.56,29.16,9,4,1,41,20,52,0.00,7,Rain,56
2011-10-26,51,48,46,46,44,37,93,82,62,29.59,29.30,29.17,9,4,1,47,38,59,0.00,8,Rain,319
2011-10-27,51,48,44,39,36,34,81,65,50,29.70,29.66,29.60,9,8,2,33,18,41,0.00,6,Rain,303
2011-10-28,48,45,42,41,38,28,93,79,50,29.98,29.65,29.53,9,7,1,30,17,37,0.00,8,Rain,353
2011-10-29,46,42,39,34,29,25,81,57,43,30.24,30.16,29.99,9,9,9,28,18,33,0.00,4,,306
2011-10-30,57,49,41,55,43,34,94,85,66,30.13,29.44,28.92,9,3,1,53,30,71,0.00,8,Rain,123
2011-10-31,44,43,42,37,35,30,76,70,61,30.36,30.02,29.40,9,7,3,52,37,71,0.00,7,Rain,310